Time;durP1;ratioP1;P1;durP2;ratioP2;P2;SDS_P1;SDS_P2;PMS_P1;PMS_P2;Temp;Humidity;BMP_temperature;BMP_pressure;BME280_temperature;BME280_humidity;BME280_pressure;Samples;Min_cycle;Max_cycle;Signal;HPM_P1;HPM_P2
2022/04/28 00:02:10;;;;;;;16.50;8.35;;;4.50;99.90;;;;;;4936291;29;20048;-88
2022/04/28 00:04:36;;;;;;;16.33;9.65;;;4.50;99.90;;;;;;4934343;29;20401;-89
2022/04/28 00:07:02;;;;;;;19.20;9.77;;;4.50;99.90;;;;;;4903103;29;20091;-88
2022/04/28 00:09:28;;;;;;;17.92;9.95;;;4.50;99.90;;;;;;4941370;29;20056;-85
2022/04/28 00:11:54;;;;;;;24.77;11.27;;;5.10;99.90;;;;;;4929123;29;20073;-84
2022/04/28 00:14:20;;;;;;;17.95;10.68;;;4.70;99.90;;;;;;4918794;29;20055;-88
2022/04/28 00:16:45;;;;;;;18.58;10.65;;;4.30;99.90;;;;;;4918640;29;20059;-87
2022/04/28 00:19:11;;;;;;;17.42;10.10;;;4.30;99.90;;;;;;4934350;29;20067;-88
2022/04/28 00:21:37;;;;;;;21.15;10.73;;;4.40;99.90;;;;;;4933443;29;20507;-89
2022/04/28 00:24:03;;;;;;;16.77;9.43;;;4.30;99.90;;;;;;4935249;29;20059;-89
2022/04/28 00:26:28;;;;;;;17.80;9.32;;;4.40;99.90;;;;;;4934316;29;20048;-88
2022/04/28 00:28:54;;;;;;;14.55;9.65;;;4.50;99.90;;;;;;4934665;29;20251;-89
2022/04/28 00:31:20;;;;;;;14.18;9.18;;;4.60;99.90;;;;;;4918120;29;20051;-88
2022/04/28 00:33:48;;;;;;;14.75;8.98;;;4.60;99.90;;;;;;4918778;29;20102;-87
2022/04/28 00:36:16;;;;;;;13.52;8.75;;;4.90;99.90;;;;;;4918528;29;20058;-87
2022/04/28 00:38:42;;;;;;;14.38;7.32;;;4.70;99.90;;;;;;4934313;29;20043;-88
2022/04/28 00:41:08;;;;;;;15.20;8.07;;;4.80;99.90;;;;;;4904095;29;20126;-87
2022/04/28 00:43:46;;;;;;;16.58;7.80;;;4.90;99.90;;;;;;4939819;29;20131;-88
2022/04/28 00:46:12;;;;;;;13.52;7.03;;;5.40;99.90;;;;;;4925140;29;20527;-86
2022/04/28 00:51:22;;;;;;;14.57;6.40;;;6.10;99.90;;;;;;4948392;29;20051;-84
2022/04/28 00:53:48;;;;;;;14.35;6.50;;;5.60;99.90;;;;;;4912368;29;20044;-87
2022/04/28 00:56:16;;;;;;;12.13;6.47;;;5.90;99.90;;;;;;4941369;29;20052;-88
2022/04/28 00:58:41;;;;;;;12.77;5.95;;;6.00;99.90;;;;;;4915911;29;20070;-87
2022/04/28 01:01:07;;;;;;;11.85;5.57;;;5.40;99.90;;;;;;4919081;29;20051;-88
2022/04/28 01:03:33;;;;;;;13.27;6.32;;;6.40;99.90;;;;;;4920299;29;20411;-88
2022/04/28 01:05:59;;;;;;;11.13;5.68;;;5.50;99.90;;;;;;4906198;29;20134;-87
2022/04/28 01:08:25;;;;;;;13.65;5.95;;;5.60;99.90;;;;;;4936497;29;20052;-89
2022/04/28 01:10:54;;;;;;;13.45;5.72;;;6.70;99.90;;;;;;4935902;29;20074;-89
2022/04/28 01:13:20;;;;;;;12.25;6.10;;;5.70;99.90;;;;;;4936259;29;20123;-88
2022/04/28 01:15:46;;;;;;;11.20;6.53;;;5.90;99.90;;;;;;4935751;29;20455;-88
2022/04/28 01:18:12;;;;;;;12.35;6.50;;;5.70;99.90;;;;;;4934757;29;20130;-87
2022/04/28 01:20:38;;;;;;;12.70;6.15;;;5.80;99.90;;;;;;4934922;29;20094;-88
2022/04/28 01:23:04;;;;;;;14.35;6.28;;;6.60;99.90;;;;;;4918864;29;20555;-87
2022/04/28 01:25:30;;;;;;;16.30;6.35;;;5.90;99.90;;;;;;4918920;29;20552;-88
2022/04/28 01:27:55;;;;;;;14.02;6.18;;;5.90;99.90;;;;;;4902990;29;20135;-87
2022/04/28 01:30:21;;;;;;;13.65;6.07;;;7.20;99.90;;;;;;4902768;29;20051;-88
2022/04/28 01:32:47;;;;;;;11.52;6.05;;;6.00;99.90;;;;;;4935048;29;20079;-89
2022/04/28 01:35:12;;;;;;;12.75;5.57;;;7.00;99.90;;;;;;4921857;29;20048;-87
2022/04/28 01:37:38;;;;;;;12.68;6.15;;;6.10;99.90;;;;;;4905894;29;20582;-88
2022/04/28 01:40:06;;;;;;;14.02;5.88;;;6.20;99.90;;;;;;4922117;29;20086;-88
2022/04/28 01:42:32;;;;;;;12.80;5.68;;;6.20;99.90;;;;;;4891065;29;20063;-88
2022/04/28 01:44:57;;;;;;;15.95;5.30;;;6.20;99.90;;;;;;4921673;29;20051;-87
2022/04/28 01:47:24;;;;;;;13.93;6.38;;;6.40;99.90;;;;;;4937119;29;20062;-88
2022/04/28 01:49:49;;;;;;;8.93;4.80;;;6.40;99.90;;;;;;4905527;29;20066;-86
2022/04/28 01:54:59;;;;;;;12.38;5.10;;;6.50;99.90;;;;;;4937427;29;20066;-87
2022/04/28 01:57:29;;;;;;;11.00;5.22;;;6.50;99.90;;;;;;4920375;29;20052;-87
2022/04/28 01:59:56;;;;;;;9.18;4.88;;;6.50;99.90;;;;;;4921994;29;20139;-88
2022/04/28 02:02:22;;;;;;;12.35;4.82;;;6.60;99.90;;;;;;4925916;29;20046;-86
2022/04/28 02:04:48;;;;;;;8.75;5.68;;;7.20;99.90;;;;;;4959235;29;20047;-88
2022/04/28 02:07:13;;;;;;;9.68;5.05;;;6.60;99.90;;;;;;4946742;29;20059;-88
2022/04/28 02:09:45;;;;;;;11.95;5.07;;;6.60;99.90;;;;;;4938204;29;20106;-87
2022/04/28 02:12:12;;;;;;;10.73;5.25;;;6.60;99.90;;;;;;4937577;29;20095;-88
2022/04/28 02:14:38;;;;;;;12.93;4.75;;;6.70;99.90;;;;;;4905790;29;20103;-87
2022/04/28 02:17:04;;;;;;;8.48;4.53;;;6.70;99.90;;;;;;4937892;29;20480;-88
2022/04/28 02:19:31;;;;;;;14.32;5.47;;;6.80;99.90;;;;;;4941083;29;20063;-83
2022/04/28 02:21:56;;;;;;;11.63;4.93;;;6.90;99.90;;;;;;4908716;29;20370;-89
2022/04/28 02:24:28;;;;;;;12.27;5.25;;;6.90;99.90;;;;;;4937453;29;20187;-87
2022/04/28 02:26:54;;;;;;;11.30;5.07;;;6.80;99.90;;;;;;4937107;29;20139;-87
2022/04/28 02:29:19;;;;;;;11.98;5.13;;;7.00;99.90;;;;;;4905636;29;20062;-87
2022/04/28 02:31:45;;;;;;;14.13;5.13;;;6.90;99.90;;;;;;4921446;29;20044;-88
2022/04/28 02:34:11;;;;;;;10.95;4.78;;;6.80;99.90;;;;;;4927181;29;20047;-84
2022/04/28 02:36:37;;;;;;;9.48;4.07;;;6.90;99.90;;;;;;4926691;29;20056;-86
2022/04/28 02:39:03;;;;;;;14.05;4.20;;;6.80;99.90;;;;;;4942668;29;20477;-87
2022/04/28 02:41:28;;;;;;;10.77;4.93;;;6.90;99.90;;;;;;4939093;29;20063;-85
2022/04/28 02:43:54;;;;;;;11.18;4.85;;;7.00;99.90;;;;;;4905326;29;20051;-87
2022/04/28 02:46:20;;;;;;;13.43;4.97;;;6.90;99.90;;;;;;4919624;29;20048;-87
2022/04/28 02:48:46;;;;;;;12.75;4.78;;;7.00;99.90;;;;;;4936335;29;20051;-86
2022/04/28 02:51:11;;;;;;;8.88;4.47;;;7.00;99.90;;;;;;4920650;29;20047;-88
2022/04/28 02:53:37;;;;;;;11.95;4.47;;;6.90;99.90;;;;;;4904797;29;20055;-88
2022/04/28 02:56:03;;;;;;;10.77;4.88;;;6.90;99.90;;;;;;4904613;29;20059;-87
2022/04/28 02:58:29;;;;;;;11.88;4.78;;;7.00;99.90;;;;;;4935409;29;20074;-87
2022/04/28 03:00:55;;;;;;;10.90;4.60;;;7.00;99.90;;;;;;4935571;29;20044;-88
2022/04/28 03:03:20;;;;;;;10.75;4.10;;;7.80;99.90;;;;;;4903557;29;20396;-87
2022/04/28 03:11:17;;;;;;;15.32;4.28;;;7.00;99.90;;;;;;4934992;29;20062;-89
2022/04/28 03:13:43;;;;;;;12.50;4.50;;;7.00;99.90;;;;;;4903624;29;20051;-88
2022/04/28 03:16:09;;;;;;;9.73;4.10;;;7.00;99.90;;;;;;4934941;29;20492;-86
2022/04/28 03:18:34;;;;;;;12.18;4.50;;;7.00;99.90;;;;;;4935970;29;20179;-87
2022/04/28 03:21:00;;;;;;;11.23;4.32;;;7.00;99.90;;;;;;4935297;29;20047;-88
2022/04/28 03:23:26;;;;;;;10.75;4.03;;;7.00;99.90;;;;;;4918678;29;20155;-88
2022/04/28 03:25:52;;;;;;;9.80;4.35;;;7.00;99.90;;;;;;4903319;29;20220;-90
2022/04/28 03:28:21;;;;;;;15.38;4.63;;;7.20;99.90;;;;;;4919070;29;20510;-87
2022/04/28 03:30:48;;;;;;;12.32;4.75;;;7.00;99.90;;;;;;4918309;29;20048;-87
2022/04/28 03:33:14;;;;;;;11.70;4.78;;;7.00;99.90;;;;;;4918998;29;20055;-88
2022/04/28 03:35:40;;;;;;;9.63;3.83;;;7.10;99.90;;;;;;4918578;29;20126;-88
2022/04/28 03:38:08;;;;;;;10.50;4.43;;;7.00;99.90;;;;;;4934174;29;20174;-87
2022/04/28 03:40:34;;;;;;;7.72;4.55;;;7.00;99.90;;;;;;4934534;29;20051;-88
2022/04/28 03:43:00;;;;;;;11.52;4.35;;;7.00;99.90;;;;;;4934911;29;20054;-88
2022/04/28 03:45:26;;;;;;;11.32;4.28;;;7.10;99.90;;;;;;4935540;29;20062;-87
2022/04/28 03:47:52;;;;;;;8.60;4.30;;;7.00;99.90;;;;;;4939075;29;20059;-87
2022/04/28 03:50:17;;;;;;;12.00;4.40;;;7.00;99.90;;;;;;4953859;29;20048;-87
2022/04/28 03:52:43;;;;;;;16.20;6.07;;;7.50;99.90;;;;;;4928355;29;20504;-88
2022/04/28 03:55:10;;;;;;;13.20;4.65;;;6.90;99.90;;;;;;4940025;29;20062;-88
2022/04/28 03:57:36;;;;;;;8.85;4.53;;;7.00;99.90;;;;;;4953233;29;20119;-88
2022/04/28 04:00:05;;;;;;;7.28;4.10;;;6.90;99.90;;;;;;4924925;29;20060;-88
2022/04/28 04:02:31;;;;;;;13.18;5.00;;;6.90;99.90;;;;;;4925025;29;20444;-89
2022/04/28 04:04:58;;;;;;;13.32;4.88;;;6.90;99.90;;;;;;4928906;29;20130;-88
2022/04/28 04:07:31;;;;;;;11.82;4.40;;;6.90;99.90;;;;;;4952575;29;20054;-88
2022/04/28 04:09:57;;;;;;;8.90;4.78;;;7.30;99.90;;;;;;4922020;29;20056;-87
2022/04/28 04:12:23;;;;;;;12.88;5.00;;;7.00;99.90;;;;;;4917223;29;20094;-89
2022/04/28 04:14:49;;;;;;;16.30;6.60;;;7.10;99.90;;;;;;4929052;29;20055;-87
2022/04/28 04:17:15;;;;;;;9.82;4.70;;;6.90;99.90;;;;;;4908160;29;20051;-88
2022/04/28 04:19:41;;;;;;;10.40;4.85;;;7.10;99.90;;;;;;4923841;29;20062;-89
2022/04/28 04:22:06;;;;;;;9.82;4.63;;;7.70;99.90;;;;;;4958052;28;20048;-86
2022/04/28 04:24:32;;;;;;;8.90;4.68;;;7.00;99.90;;;;;;4941263;29;20111;-87
2022/04/28 04:26:58;;;;;;;10.23;4.75;;;6.90;99.90;;;;;;4944799;29;20063;-87
2022/04/28 04:29:23;;;;;;;10.77;5.15;;;6.90;99.90;;;;;;4936005;29;20051;-86
2022/04/28 04:34:34;;;;;;;13.10;5.38;;;6.90;99.90;;;;;;4935259;29;20055;-87
2022/04/28 04:36:59;;;;;;;10.45;5.10;;;6.90;99.90;;;;;;4888251;29;20047;-87
2022/04/28 04:39:25;;;;;;;11.32;5.15;;;6.90;99.90;;;;;;4934259;29;20089;-87
2022/04/28 04:41:51;;;;;;;14.05;6.35;;;7.10;99.90;;;;;;4903630;29;20056;-87
2022/04/28 04:44:16;;;;;;;11.23;4.90;;;6.90;99.90;;;;;;4919163;29;20396;-87
2022/04/28 04:46:42;;;;;;;9.50;5.55;;;7.00;99.90;;;;;;4935033;29;20126;-87
2022/04/28 04:49:08;;;;;;;10.95;5.15;;;7.00;99.90;;;;;;4918868;29;20114;-87
2022/04/28 04:51:34;;;;;;;11.23;4.80;;;6.90;99.90;;;;;;4918331;29;20047;-88
2022/04/28 04:53:59;;;;;;;10.07;5.50;;;7.70;99.90;;;;;;4933951;29;20050;-88
2022/04/28 04:56:25;;;;;;;15.98;5.35;;;7.10;99.90;;;;;;4934875;29;20071;-87
2022/04/28 04:58:51;;;;;;;12.85;6.10;;;7.10;99.90;;;;;;4935095;29;20066;-88
2022/04/28 05:01:17;;;;;;;11.32;4.80;;;7.10;99.90;;;;;;4917922;29;20051;-89
2022/04/28 05:03:42;;;;;;;11.73;5.47;;;7.20;99.90;;;;;;4917589;29;20056;-87
2022/04/28 05:06:08;;;;;;;13.10;5.47;;;7.20;99.90;;;;;;4933900;29;20067;-87
2022/04/28 05:08:34;;;;;;;10.43;5.60;;;7.20;99.90;;;;;;4919405;29;20496;-87
2022/04/28 05:10:59;;;;;;;10.80;5.35;;;7.30;99.90;;;;;;4906196;29;20078;-88
2022/04/28 05:13:25;;;;;;;12.82;5.30;;;8.20;99.90;;;;;;4937086;29;20051;-88
2022/04/28 05:15:51;;;;;;;10.52;5.35;;;7.30;99.90;;;;;;4921388;29;20051;-88
2022/04/28 05:18:16;;;;;;;12.88;5.28;;;7.30;99.90;;;;;;4937198;29;20062;-88
2022/04/28 05:20:42;;;;;;;13.38;5.50;;;7.30;99.90;;;;;;4936909;29;20044;-88
2022/04/28 05:23:08;;;;;;;11.52;5.65;;;7.30;99.90;;;;;;4937023;29;20159;-87
2022/04/28 05:25:33;;;;;;;11.10;5.20;;;7.40;99.90;;;;;;4936881;29;20052;-88
2022/04/28 05:27:59;;;;;;;13.68;5.55;;;7.60;99.90;;;;;;4921424;29;20062;-88
2022/04/28 05:30:25;;;;;;;12.60;5.78;;;7.40;99.90;;;;;;4920506;29;20051;-88
2022/04/28 05:32:50;;;;;;;15.13;4.97;;;7.50;99.90;;;;;;4920751;29;20515;-87
2022/04/28 05:35:16;;;;;;;20.20;6.10;;;7.60;99.90;;;;;;4937064;29;20051;-87
2022/04/28 05:37:42;;;;;;;10.77;5.07;;;7.60;99.90;;;;;;4937728;29;20114;-87
2022/04/28 05:40:08;;;;;;;14.07;5.50;;;7.70;99.90;;;;;;4905854;29;20440;-87
2022/04/28 05:48:03;;;;;;;11.82;4.90;;;7.90;99.90;;;;;;4923874;29;20070;-87
2022/04/28 05:50:28;;;;;;;11.40;5.05;;;8.00;99.90;;;;;;4890300;29;20512;-87
2022/04/28 05:52:54;;;;;;;10.40;4.68;;;8.10;99.90;;;;;;4889626;29;20063;-87
2022/04/28 05:55:20;;;;;;;10.52;4.93;;;8.10;99.90;;;;;;4937171;29;20099;-86
2022/04/28 05:57:46;;;;;;;8.15;4.55;;;8.20;99.90;;;;;;4954625;29;20051;-86
2022/04/28 06:00:12;;;;;;;11.55;4.80;;;8.20;99.90;;;;;;4940446;29;20548;-87
2022/04/28 06:02:37;;;;;;;16.23;5.00;;;8.30;99.90;;;;;;4936517;29;20558;-87
2022/04/28 06:05:04;;;;;;;17.50;5.60;;;8.30;99.90;;;;;;4936393;29;20052;-87
2022/04/28 06:07:29;;;;;;;21.63;5.25;;;8.40;99.90;;;;;;4920993;29;20052;-87
2022/04/28 06:09:55;;;;;;;12.13;4.82;;;8.60;99.90;;;;;;4936287;29;20082;-87
2022/04/28 06:12:24;;;;;;;16.83;5.25;;;8.70;99.90;;;;;;4921342;29;20113;-87
2022/04/28 06:14:49;;;;;;;10.65;5.13;;;8.80;99.90;;;;;;4936986;29;20063;-86
2022/04/28 06:17:15;;;;;;;9.15;5.07;;;9.10;99.90;;;;;;4920336;29;20131;-86
2022/04/28 06:19:41;;;;;;;13.02;5.55;;;9.80;99.90;;;;;;4919696;29;20107;-87
2022/04/28 06:22:06;;;;;;;12.95;5.82;;;9.30;99.90;;;;;;4935963;29;20048;-87
2022/04/28 06:24:32;;;;;;;11.23;5.97;;;9.30;99.90;;;;;;4919722;29;20048;-87
2022/04/28 06:26:58;;;;;;;17.17;6.15;;;9.30;99.90;;;;;;4935933;29;20062;-86
2022/04/28 06:29:23;;;;;;;14.68;6.10;;;9.50;99.90;;;;;;4936118;29;20035;-85
2022/04/28 06:31:49;;;;;;;11.90;6.10;;;9.70;99.90;;;;;;4935487;29;20540;-87
2022/04/28 06:34:15;;;;;;;12.95;5.80;;;10.10;99.90;;;;;;4935884;29;20504;-88
2022/04/28 06:36:40;;;;;;;13.52;6.07;;;10.10;99.90;;;;;;4919896;29;20083;-87
2022/04/28 06:39:06;;;;;;;11.35;4.85;;;10.30;99.90;;;;;;4905038;29;20051;-87
2022/04/28 06:41:32;;;;;;;10.02;3.67;;;10.60;99.90;;;;;;4955867;29;20080;-85
2022/04/28 06:43:57;;;;;;;12.15;5.22;;;10.60;99.90;;;;;;4957072;28;20226;-86
2022/04/28 06:46:23;;;;;;;10.38;4.80;;;10.90;99.90;;;;;;4932315;29;20054;-87
2022/04/28 06:48:49;;;;;;;17.90;4.80;;;11.10;99.90;;;;;;4925917;29;20075;-86
2022/04/28 06:51:15;;;;;;;9.23;4.00;;;11.20;99.90;;;;;;4925702;29;20048;-85
2022/04/28 06:53:40;;;;;;;12.32;4.72;;;11.60;99.90;;;;;;4911655;29;20047;-87
2022/04/28 06:56:06;;;;;;;11.60;4.07;;;11.90;99.90;;;;;;4910528;29;20063;-85
2022/04/28 06:58:32;;;;;;;7.80;3.63;;;12.20;99.90;;;;;;4922866;29;20049;-86
2022/04/28 07:00:58;;;;;;;14.68;4.30;;;12.60;99.90;;;;;;4907357;29;20051;-86
2022/04/28 07:03:23;;;;;;;9.88;3.60;;;13.40;99.90;;;;;;4936871;29;20063;-86
2022/04/28 07:05:49;;;;;;;13.18;4.13;;;13.60;99.90;;;;;;4935744;29;20472;-88
2022/04/28 07:08:15;;;;;;;12.50;3.90;;;13.70;99.90;;;;;;4920879;29;20051;-87
2022/04/28 07:10:41;;;;;;;10.65;3.90;;;13.60;99.90;;;;;;4936860;29;20059;-87
2022/04/28 07:13:07;;;;;;;8.90;3.40;;;13.40;99.90;;;;;;4936694;29;20492;-87
2022/04/28 07:15:36;;;;;;;9.68;3.42;;;13.20;99.90;;;;;;4920162;29;20055;-87
2022/04/28 07:18:03;;;;;;;9.25;3.28;;;13.80;99.90;;;;;;4934502;29;20154;-85
2022/04/28 07:20:31;;;;;;;9.93;2.92;;;14.60;99.90;;;;;;4903559;29;20559;-84
2022/04/28 07:22:59;;;;;;;8.85;2.40;;;16.00;99.90;;;;;;4919578;29;20060;-85
2022/04/28 07:25:26;;;;;;;9.68;2.83;;;15.60;99.90;;;;;;4940242;29;20075;-85
2022/04/28 07:27:51;;;;;;;11.55;2.45;;;15.90;99.90;;;;;;4918805;29;20360;-84
2022/04/28 07:30:18;;;;;;;11.68;3.75;;;15.20;99.90;;;;;;4929461;29;20043;-84
2022/04/28 07:32:44;;;;;;;7.82;2.58;;;13.80;99.90;;;;;;4945657;29;20167;-85
2022/04/28 07:35:10;;;;;;;10.15;4.03;;;12.90;99.90;;;;;;4945491;29;20166;-85
2022/04/28 07:37:36;;;;;;;7.03;2.40;;;12.70;99.90;;;;;;4934675;29;20047;-84
2022/04/28 07:40:03;;;;;;;8.10;2.67;;;12.70;99.90;;;;;;4933525;29;20062;-85
2022/04/28 07:42:28;;;;;;;8.68;2.42;;;12.50;99.90;;;;;;4920047;29;20064;-85
2022/04/28 07:44:54;;;;;;;6.72;2.72;;;12.20;99.90;;;;;;4936920;29;20070;-84
2022/04/28 07:47:20;;;;;;;6.32;2.25;;;12.40;99.90;;;;;;4935798;29;20086;-85
2022/04/28 07:49:45;;;;;;;6.00;2.72;;;12.70;99.90;;;;;;4934920;29;20047;-84
2022/04/28 07:52:11;;;;;;;9.32;2.20;;;12.20;99.90;;;;;;4918677;29;20055;-83
2022/04/28 07:54:37;;;;;;;4.68;1.60;;;12.00;99.90;;;;;;4918427;29;20054;-84
2022/04/28 07:57:03;;;;;;;7.45;1.98;;;11.90;99.90;;;;;;4917678;29;20063;-85
2022/04/28 07:59:29;;;;;;;6.32;2.50;;;12.10;99.90;;;;;;4934360;29;20453;-85
2022/04/28 08:01:55;;;;;;;11.63;2.28;;;12.10;99.90;;;;;;4933788;29;20091;-84
2022/04/28 08:04:21;;;;;;;10.85;2.83;;;12.00;99.90;;;;;;4934516;29;20052;-85
2022/04/28 08:06:46;;;;;;;8.63;2.65;;;12.00;99.90;;;;;;4915355;29;20044;-82
2022/04/28 08:09:12;;;;;;;10.75;2.65;;;11.90;99.90;;;;;;4903770;29;20052;-85
2022/04/28 08:11:40;;;;;;;9.52;2.30;;;11.80;99.90;;;;;;4934671;29;20043;-86
2022/04/28 08:14:05;;;;;;;5.95;2.40;;;12.90;99.90;;;;;;4918408;29;20055;-85
2022/04/28 08:16:32;;;;;;;3.92;2.25;;;13.40;99.90;;;;;;4934631;29;20535;-87
2022/04/28 08:18:58;;;;;;;9.50;2.40;;;14.40;99.90;;;;;;4934986;29;20134;-86
2022/04/28 08:21:24;;;;;;;7.28;2.00;;;13.70;99.90;;;;;;4918422;29;20576;-87
2022/04/28 08:23:49;;;;;;;6.60;2.22;;;13.30;99.90;;;;;;4934694;29;20056;-84
2022/04/28 08:26:15;;;;;;;6.47;1.90;;;13.30;99.90;;;;;;4933340;29;20039;-84
2022/04/28 08:28:41;;;;;;;6.63;2.42;;;13.10;99.90;;;;;;4933395;29;20082;-84
2022/04/28 08:31:06;;;;;;;9.38;1.98;;;12.70;99.90;;;;;;4933175;29;20500;-85
2022/04/28 08:33:32;;;;;;;7.63;2.45;;;12.70;99.90;;;;;;4933909;29;20074;-84
2022/04/28 08:35:58;;;;;;;8.40;2.10;;;12.80;99.90;;;;;;4918031;29;20090;-87
2022/04/28 08:38:24;;;;;;;11.10;2.47;;;12.50;99.90;;;;;;4934557;29;20180;-87
2022/04/28 08:40:51;;;;;;;8.07;2.60;;;12.60;99.90;;;;;;4918789;29;20047;-86
2022/04/28 08:43:17;;;;;;;9.05;2.67;;;13.00;99.90;;;;;;4917763;29;20078;-86
2022/04/28 08:48:34;;;;;;;9.93;2.40;;;13.20;99.90;;;;;;4907484;29;20126;-85
2022/04/28 08:51:00;;;;;;;7.18;1.92;;;13.30;99.90;;;;;;4910133;29;20168;-84
2022/04/28 08:53:26;;;;;;;8.70;2.10;;;13.60;99.90;;;;;;4914372;29;20052;-86
2022/04/28 08:55:57;;;;;;;7.32;2.22;;;13.40;99.90;;;;;;4926734;29;20127;-86
2022/04/28 08:58:23;;;;;;;10.90;2.75;;;13.00;99.90;;;;;;4933959;29;20436;-86
2022/04/28 09:00:49;;;;;;;7.53;2.33;;;13.60;99.90;;;;;;4929938;29;20040;-85
2022/04/28 09:03:15;;;;;;;6.63;1.90;;;14.20;99.90;;;;;;4924746;29;20084;-87
2022/04/28 09:05:41;;;;;;;6.78;2.30;;;13.90;99.90;;;;;;4935174;29;20059;-85
2022/04/28 09:08:06;;;;;;;8.00;2.30;;;13.80;99.90;;;;;;4935373;29;20488;-85
2022/04/28 09:10:32;;;;;;;8.32;2.42;;;13.70;99.90;;;;;;4933372;29;20099;-85
2022/04/28 09:14:09;;;;;;;8.07;2.35;;;13.50;99.90;;;;;;4932543;29;20048;-84
2022/04/28 09:15:47;;;;;;;9.30;2.78;;;13.50;99.90;;;;;;4906689;29;20056;-85
2022/04/28 09:18:12;;;;;;;7.50;2.70;;;13.30;99.90;;;;;;4933778;29;20052;-83
2022/04/28 09:20:38;;;;;;;10.77;2.78;;;13.40;99.90;;;;;;4917437;29;20647;-86
2022/04/28 09:23:04;;;;;;;9.65;2.67;;;13.30;99.90;;;;;;4933459;29;20052;-84
2022/04/28 09:25:31;;;;;;;7.53;2.40;;;13.40;99.90;;;;;;4934730;29;20462;-83
2022/04/28 09:27:59;;;;;;;6.95;2.78;;;14.00;99.90;;;;;;4937544;29;20055;-86
2022/04/28 09:30:26;;;;;;;6.43;2.13;;;14.10;99.90;;;;;;4918423;29;20059;-84
2022/04/28 09:32:52;;;;;;;9.18;3.17;;;14.00;99.90;;;;;;4932798;29;20094;-83
2022/04/28 09:35:17;;;;;;;9.07;2.70;;;13.70;99.90;;;;;;4932880;29;20079;-86
2022/04/28 09:37:43;;;;;;;6.10;2.70;;;14.00;99.90;;;;;;4932469;29;20404;-85
2022/04/28 09:42:54;;;;;;;8.63;2.65;;;14.00;99.90;;;;;;4918960;29;20106;-84
2022/04/28 09:45:22;;;;;;;6.85;2.58;;;13.60;99.90;;;;;;4915927;29;20075;-82
2022/04/28 09:47:59;;;;;;;8.02;3.08;;;13.70;99.90;;;;;;4932570;29;20107;-84
2022/04/28 09:50:25;;;;;;;11.10;3.10;;;13.80;99.90;;;;;;4925528;29;20056;-85
2022/04/28 09:52:54;;;;;;;9.52;3.10;;;13.80;99.90;;;;;;4949972;29;20112;-87
2022/04/28 09:55:19;;;;;;;10.43;3.33;;;14.00;99.90;;;;;;4938096;29;20508;-85
2022/04/28 09:57:45;;;;;;;9.65;3.13;;;13.60;99.90;;;;;;4913857;29;20056;-83
2022/04/28 10:00:11;;;;;;;7.93;2.53;;;14.90;99.90;;;;;;4913655;29;20481;-84
2022/04/28 10:02:37;;;;;;;9.93;2.83;;;16.40;99.90;;;;;;4920754;29;20174;-83
2022/04/28 10:05:03;;;;;;;6.85;2.90;;;17.40;99.90;;;;;;4904460;29;20195;-83
2022/04/28 10:07:28;;;;;;;9.02;3.72;;;16.50;99.90;;;;;;4898963;29;20060;-83
2022/04/28 10:09:54;;;;;;;6.95;2.80;;;16.50;99.90;;;;;;4906978;29;20088;-84
2022/04/28 10:12:22;;;;;;;13.00;3.55;;;15.60;99.90;;;;;;4940908;29;20103;-83
2022/04/28 10:14:48;;;;;;;11.50;3.80;;;15.60;99.90;;;;;;4922581;29;20473;-86
2022/04/28 10:17:29;;;;;;;9.02;3.45;;;14.30;99.90;;;;;;4907882;29;20044;-86
2022/04/28 10:19:57;;;;;;;14.05;3.80;;;14.90;99.90;;;;;;4912102;29;20048;-87
2022/04/28 10:22:26;;;;;;;9.65;3.97;;;14.70;99.90;;;;;;4910240;29;20071;-87
2022/04/28 10:33:21;;;;;;;9.57;3.17;;;14.70;99.90;;;;;;4912949;29;20052;-89
2022/04/28 10:35:49;;;;;;;10.13;3.65;;;14.60;99.90;;;;;;4909481;29;20092;-86
2022/04/28 10:38:31;;;;;;;9.40;3.85;;;14.90;99.90;;;;;;4942849;29;20048;-85
2022/04/28 10:41:00;;;;;;;11.45;3.90;;;14.80;99.90;;;;;;4943098;29;20048;-83
2022/04/28 10:43:30;;;;;;;12.98;4.60;;;14.70;99.90;;;;;;4925948;29;20047;-87
2022/04/28 10:45:56;;;;;;;10.52;4.10;;;14.50;99.90;;;;;;4949150;29;20052;-85
2022/04/28 10:48:29;;;;;;;8.50;3.75;;;14.90;99.90;;;;;;4907964;29;20150;-81
2022/04/28 10:51:05;;;;;;;16.17;4.20;;;14.80;99.90;;;;;;4904919;29;20087;-81
2022/04/28 10:53:32;;;;;;;8.38;3.92;;;14.60;99.90;;;;;;4942375;29;20538;-86
2022/04/28 10:56:05;;;;;;;12.95;3.17;;;14.10;99.90;;;;;;4944311;29;20059;-87
2022/04/28 10:58:31;;;;;;;10.63;3.30;;;14.20;99.90;;;;;;4933289;29;20080;-85
2022/04/28 11:00:58;;;;;;;8.63;3.50;;;14.80;99.90;;;;;;4937213;29;20054;-87
2022/04/28 11:03:48;;;;;;;8.65;3.33;;;14.60;99.90;;;;;;4935564;29;20087;-86
2022/04/28 11:06:16;;;;;;;13.85;3.53;;;14.00;99.90;;;;;;4949646;29;20051;-87
2022/04/28 11:08:49;;;;;;;11.88;3.17;;;14.60;99.90;;;;;;4933406;29;20048;-87
2022/04/28 11:11:15;;;;;;;13.00;3.30;;;15.00;99.90;;;;;;4929112;29;20107;-87
2022/04/28 11:13:46;;;;;;;11.80;3.95;;;14.60;99.90;;;;;;4903034;29;20119;-88
2022/04/28 11:16:12;;;;;;;16.45;3.97;;;14.40;99.90;;;;;;4927747;29;20071;-86
2022/04/28 11:18:38;;;;;;;14.32;2.97;;;14.50;99.90;;;;;;4924626;29;20079;-87
2022/04/28 11:21:04;;;;;;;20.27;3.83;;;14.50;99.90;;;;;;4915131;28;20096;-88
2022/04/28 11:23:40;;;;;;;13.48;3.42;;;14.20;99.90;;;;;;4916360;29;20072;-82
2022/04/28 11:26:06;;;;;;;10.32;3.83;;;14.20;99.90;;;;;;4937776;29;20131;-88
2022/04/28 11:28:33;;;;;;;9.35;3.58;;;14.10;99.90;;;;;;4914819;29;20530;-86
2022/04/28 11:30:59;;;;;;;9.75;3.10;;;14.50;99.90;;;;;;4920632;29;20064;-87
2022/04/28 11:33:25;;;;;;;11.00;2.75;;;14.60;99.90;;;;;;4911337;29;20051;-85
2022/04/28 11:35:51;;;;;;;7.95;3.33;;;14.50;99.90;;;;;;4901417;29;20047;-91
2022/04/28 11:38:27;;;;;;;12.57;3.58;;;14.40;99.90;;;;;;4901459;29;20135;-89
2022/04/28 11:41:00;;;;;;;11.43;3.28;;;14.20;99.90;;;;;;4932307;29;20057;-88
2022/04/28 11:43:29;;;;;;;10.52;3.40;;;14.70;99.90;;;;;;4932992;29;20400;-90
2022/04/28 11:45:55;;;;;;;13.27;3.25;;;14.40;99.90;;;;;;4915194;29;20070;-89
2022/04/28 11:48:20;;;;;;;11.73;3.80;;;14.60;99.90;;;;;;4918925;29;20059;-86
2022/04/28 11:50:47;;;;;;;7.35;2.90;;;14.70;99.90;;;;;;4919664;29;20059;-90
2022/04/28 11:53:13;;;;;;;12.00;3.50;;;14.80;99.90;;;;;;4904868;29;20062;-89
2022/04/28 11:55:40;;;;;;;14.07;3.50;;;14.40;99.90;;;;;;4919636;29;20068;-89
2022/04/28 11:58:07;;;;;;;7.72;2.63;;;13.90;99.90;;;;;;4935342;29;20538;-89
2022/04/28 12:00:40;;;;;;;12.00;3.50;;;14.10;99.90;;;;;;4903384;29;20047;-86
2022/04/28 12:03:06;;;;;;;11.23;4.40;;;14.20;99.90;;;;;;4917001;29;20488;-86
2022/04/28 12:05:33;;;;;;;13.57;3.35;;;13.90;99.90;;;;;;4916670;29;20043;-85
2022/04/28 12:07:58;;;;;;;10.13;3.15;;;14.00;99.90;;;;;;4917739;29;20131;-86
2022/04/28 12:16:08;;;;;;;11.80;4.13;;;14.70;99.90;;;;;;4893711;29;20060;-89
2022/04/28 12:21:22;;;;;;;11.15;4.13;;;14.50;99.90;;;;;;4931704;29;20079;-88
2022/04/28 12:23:50;;;;;;;12.30;3.53;;;14.50;99.90;;;;;;4909990;29;20143;-85
2022/04/28 12:26:19;;;;;;;8.32;3.20;;;14.40;99.90;;;;;;4933680;29;20058;-85
2022/04/28 12:28:45;;;;;;;10.55;3.50;;;14.60;99.90;;;;;;4916634;29;20062;-86
2022/04/28 12:31:14;;;;;;;6.32;2.88;;;14.30;99.90;;;;;;4941029;29;20122;-86
2022/04/28 12:33:40;;;;;;;14.00;4.25;;;14.60;99.90;;;;;;4935745;29;20480;-89
2022/04/28 12:36:07;;;;;;;17.42;4.80;;;14.30;99.90;;;;;;4932981;29;20134;-83
2022/04/28 12:38:35;;;;;;;9.48;3.40;;;14.20;99.90;;;;;;4917090;29;20452;-85
2022/04/28 12:41:22;;;;;;;10.95;2.80;;;14.80;99.90;;;;;;4901742;29;20055;-86
2022/04/28 12:43:56;;;;;;;11.80;3.80;;;14.90;99.90;;;;;;4907564;29;20052;-86
2022/04/28 12:46:45;;;;;;;10.63;3.25;;;14.30;99.90;;;;;;4901564;29;20558;-87
2022/04/28 12:49:13;;;;;;;9.00;3.53;;;14.30;99.90;;;;;;4934362;29;20063;-87
2022/04/28 12:51:52;;;;;;;11.20;3.72;;;14.50;99.90;;;;;;4943528;29;20140;-87
2022/04/28 12:54:20;;;;;;;7.25;3.03;;;14.60;99.90;;;;;;4929402;29;20519;-84
2022/04/28 12:57:06;;;;;;;4.82;2.50;;;14.90;99.90;;;;;;4936387;29;20118;-89
2022/04/28 12:59:35;;;;;;;7.95;3.25;;;14.70;99.90;;;;;;4949633;29;20146;-89
2022/04/28 13:02:00;;;;;;;12.52;3.88;;;14.60;99.90;;;;;;4908424;29;20102;-87
2022/04/28 13:04:26;;;;;;;8.63;3.20;;;14.00;99.90;;;;;;4903273;29;20134;-87
2022/04/28 13:06:52;;;;;;;12.55;5.38;;;14.00;99.90;;;;;;4918032;29;20171;-86
2022/04/28 13:09:19;;;;;;;9.85;3.67;;;14.20;99.90;;;;;;4904624;29;20103;-88
2022/04/28 13:11:46;;;;;;;9.30;2.92;;;14.70;99.90;;;;;;4886473;29;20043;-88
2022/04/28 13:14:14;;;;;;;12.38;3.63;;;14.70;99.90;;;;;;4917964;29;20062;-85
2022/04/28 13:16:40;;;;;;;13.60;3.63;;;14.60;99.90;;;;;;4932258;29;20048;-86
2022/04/28 13:19:08;;;;;;;7.93;3.28;;;14.40;99.90;;;;;;4900728;29;20043;-87
2022/04/28 13:21:34;;;;;;;7.85;2.85;;;14.50;99.90;;;;;;4934198;29;20047;-87
2022/04/28 13:24:00;;;;;;;10.52;3.20;;;14.50;99.90;;;;;;4933047;29;20063;-86
2022/04/28 13:26:28;;;;;;;10.80;3.63;;;14.30;99.90;;;;;;4932442;29;20051;-85